createdAt,value
2024-05-09T00:00:43.370Z,62.49
2024-05-09T00:03:11.722Z,62.41
2024-05-09T00:05:41.147Z,62.62
2024-05-09T00:08:09.579Z,62.69
2024-05-09T00:10:41.253Z,62.82
2024-05-09T00:13:10.347Z,62.65
2024-05-09T00:15:37.732Z,62.75
2024-05-09T00:18:05.837Z,62.77
2024-05-09T00:20:38.665Z,62.83
2024-05-09T00:23:09.527Z,62.88
2024-05-09T00:25:37.166Z,62.92
2024-05-09T00:28:04.153Z,63.12
2024-05-09T00:30:34.795Z,63.01
2024-05-09T00:33:07.697Z,63.13
2024-05-09T00:35:35.968Z,63.10
2024-05-09T00:38:03.167Z,63.21
2024-05-09T00:40:40.482Z,63.31
2024-05-09T00:43:10.509Z,63.25
2024-05-09T00:45:37.565Z,63.47
2024-05-09T00:48:07.740Z,63.32
2024-05-09T00:50:38.880Z,63.54
2024-05-09T00:53:11.875Z,63.55
2024-05-09T00:55:39.892Z,63.64
2024-05-09T00:58:12.181Z,63.60
2024-05-09T01:00:41.152Z,63.73
2024-05-09T01:03:11.623Z,63.91
2024-05-09T01:05:40.616Z,63.83
2024-05-09T01:08:08.311Z,63.87
2024-05-09T01:10:36.565Z,63.88
2024-05-09T01:13:07.397Z,64.14
2024-05-09T01:15:35.804Z,64.08
2024-05-09T01:18:10.551Z,64.09
2024-05-09T01:20:42.308Z,64.08
2024-05-09T01:23:12.245Z,64.25
2024-05-09T01:25:39.755Z,64.28
2024-05-09T01:28:07.354Z,64.02
2024-05-09T01:30:36.535Z,64.40
2024-05-09T01:33:10.684Z,64.42
2024-05-09T01:35:41.352Z,64.42
2024-05-09T01:38:10.003Z,64.68
2024-05-09T01:40:39.847Z,64.45
2024-05-09T01:43:08.820Z,64.57
2024-05-09T01:45:39.331Z,64.71
2024-05-09T01:48:07.058Z,64.73
2024-05-09T01:50:39.222Z,64.71
2024-05-09T01:53:14.070Z,64.58
2024-05-09T01:55:44.158Z,64.67
2024-05-09T01:58:11.307Z,64.89
2024-05-09T02:00:42.616Z,65.09
2024-05-09T02:03:14.412Z,64.84
2024-05-09T02:05:44.571Z,65.11
2024-05-09T02:08:18.398Z,64.91
2024-05-09T02:10:47.146Z,64.84
2024-05-09T02:13:14.644Z,65.04
2024-05-09T02:15:41.479Z,65.14
2024-05-09T02:18:09.166Z,65.08
2024-05-09T02:20:39.116Z,65.08
2024-05-09T02:23:06.909Z,65.34
2024-05-09T02:25:34.166Z,65.38
2024-05-09T02:28:01.356Z,65.28
2024-05-09T02:30:38.621Z,65.27
2024-05-09T02:33:10.079Z,65.63
2024-05-09T02:35:38.616Z,65.42
2024-05-09T02:38:05.554Z,65.53
2024-05-09T02:40:37.428Z,65.60
2024-05-09T02:43:13.728Z,65.68
2024-05-09T02:45:40.715Z,65.58
2024-05-09T02:48:10.943Z,65.67
2024-05-09T02:50:39.926Z,65.87
2024-05-09T02:53:08.759Z,65.75
2024-05-09T02:55:38.965Z,65.82
2024-05-09T02:58:09.632Z,65.96
2024-05-09T03:00:40.228Z,65.91
2024-05-09T03:03:10.868Z,65.94
2024-05-09T03:05:40.391Z,65.93
2024-05-09T03:08:07.725Z,66.17
2024-05-09T03:10:36.885Z,66.18
2024-05-09T03:13:14.908Z,66.04
2024-05-09T03:15:43.154Z,66.36
2024-05-09T03:18:10.951Z,66.20
2024-05-09T03:20:38.550Z,66.26
2024-05-09T03:23:08.643Z,66.18
2024-05-09T03:25:36.382Z,66.25
2024-05-09T03:28:03.742Z,66.30
2024-05-09T03:30:39.439Z,66.43
2024-05-09T03:33:15.389Z,66.42
2024-05-09T03:35:46.116Z,66.50
2024-05-09T03:38:13.116Z,66.45
2024-05-09T03:40:47.640Z,66.47
2024-05-09T03:43:14.716Z,66.50
2024-05-09T03:45:44.736Z,66.55
2024-05-09T03:48:11.859Z,66.50
2024-05-09T03:50:39.007Z,66.66
2024-05-09T03:53:06.310Z,66.76
2024-05-09T03:55:33.121Z,66.79
2024-05-09T03:57:59.962Z,66.80
2024-05-09T04:00:36.834Z,66.90
2024-05-09T04:03:08.488Z,66.79
2024-05-09T04:05:39.810Z,66.94
2024-05-09T04:08:07.660Z,66.78
2024-05-09T04:10:36.701Z,67.04
2024-05-09T04:13:06.223Z,67.13
2024-05-09T04:15:33.357Z,66.86
2024-05-09T04:18:03.067Z,66.99
2024-05-09T04:20:37.630Z,66.92
2024-05-09T04:23:08.746Z,67.00
2024-05-09T04:25:36.341Z,67.17
2024-05-09T04:28:05.821Z,67.23
2024-05-09T04:30:38.163Z,67.13
2024-05-09T04:33:09.505Z,67.15
2024-05-09T04:35:38.921Z,67.27
2024-05-09T04:38:08.041Z,67.53
2024-05-09T04:40:37.082Z,67.46
2024-05-09T04:43:13.764Z,67.49
2024-05-09T04:45:40.845Z,67.51
2024-05-09T04:48:08.611Z,67.43
2024-05-09T04:50:38.570Z,67.29
2024-05-09T04:53:08.749Z,67.37
2024-05-09T04:55:37.282Z,67.64
2024-05-09T04:58:08.206Z,67.61
2024-05-09T05:00:37.419Z,67.50
2024-05-09T05:03:08.046Z,67.84
2024-05-09T05:05:38.190Z,67.74
2024-05-09T05:08:05.934Z,67.93
2024-05-09T05:10:36.287Z,67.63
2024-05-09T05:13:18.199Z,67.76
2024-05-09T05:15:49.132Z,67.83
2024-05-09T05:18:18.786Z,67.93
2024-05-09T05:20:46.102Z,67.96
2024-05-09T05:23:17.235Z,67.93
2024-05-09T05:25:44.618Z,67.75
2024-05-09T05:28:11.533Z,67.94
2024-05-09T05:30:38.988Z,67.86
2024-05-09T05:33:10.364Z,68.14
2024-05-09T05:35:37.595Z,67.91
2024-05-09T05:38:04.703Z,68.01
2024-05-09T05:40:36.111Z,67.92
2024-05-09T05:43:10.463Z,67.80
2024-05-09T05:45:40.306Z,67.92
2024-05-09T05:48:07.944Z,67.88
2024-05-09T05:50:38.546Z,67.86
2024-05-09T05:53:09.584Z,68.00
2024-05-09T05:55:37.901Z,67.99
2024-05-09T05:58:04.955Z,68.20
2024-05-09T06:00:38.345Z,67.95
2024-05-09T06:03:07.781Z,68.04
2024-05-09T06:05:36.329Z,68.13
2024-05-09T06:08:03.180Z,68.28
2024-05-09T06:10:37.567Z,68.15
2024-05-09T06:13:07.492Z,68.20
2024-05-09T06:15:34.459Z,68.06
2024-05-09T06:18:01.703Z,68.01
2024-05-09T06:20:35.575Z,68.28
2024-05-09T06:23:07.922Z,68.21
2024-05-09T06:25:36.028Z,68.06
2024-05-09T06:28:05.957Z,67.96
2024-05-09T06:30:42.421Z,68.25
2024-05-09T06:33:12.815Z,68.21
2024-05-09T06:35:41.895Z,68.11
2024-05-09T06:38:09.587Z,67.96
2024-05-09T06:40:39.990Z,68.12
2024-05-09T06:43:17.149Z,67.93
2024-05-09T06:45:47.944Z,68.05
2024-05-09T06:48:17.628Z,68.54
2024-05-09T06:50:44.813Z,68.71
2024-05-09T06:53:14.249Z,69.25
2024-05-09T06:55:41.175Z,69.29
2024-05-09T06:58:11.840Z,69.37
2024-05-09T07:00:41.203Z,69.25
2024-05-09T07:03:15.498Z,69.43
2024-05-09T07:05:45.445Z,69.33
2024-05-09T07:08:13.059Z,69.20
2024-05-09T07:10:39.965Z,68.89
2024-05-09T07:13:10.895Z,69.08
2024-05-09T07:15:37.896Z,68.64
2024-05-09T07:18:15.020Z,68.62
2024-05-09T07:20:42.375Z,68.49
2024-05-09T07:23:13.118Z,68.59
2024-05-09T07:25:41.182Z,68.45
2024-05-09T07:28:19.347Z,68.25
2024-05-09T07:30:48.754Z,68.19
2024-05-09T07:33:16.784Z,68.14
2024-05-09T07:35:43.804Z,68.12
2024-05-09T07:38:10.664Z,68.17
2024-05-09T07:40:41.704Z,68.25
2024-05-09T07:43:11.636Z,68.25
2024-05-09T07:45:48.604Z,68.39
2024-05-09T07:53:39.542Z,68.12
2024-05-09T07:56:10.492Z,68.05
2024-05-09T07:58:38.891Z,68.20
2024-05-09T08:01:06.147Z,67.78
2024-05-09T08:03:33.371Z,68.09
2024-05-09T08:06:00.483Z,67.98
2024-05-09T08:08:30.251Z,68.16
2024-05-09T08:10:57.087Z,68.08
2024-05-09T08:13:24.142Z,68.64
2024-05-09T08:15:51.849Z,68.53
2024-05-09T08:18:19.080Z,68.76
2024-05-09T08:20:48.515Z,68.61
2024-05-09T08:23:15.278Z,68.74
2024-05-09T08:25:44.297Z,68.73
2024-05-09T08:28:13.959Z,68.33
2024-05-09T08:30:41.384Z,68.40
2024-05-09T08:33:08.395Z,68.24
2024-05-09T08:35:35.727Z,68.42
2024-05-09T08:38:09.478Z,68.66
2024-05-09T08:40:37.935Z,68.54
2024-05-09T08:43:11.290Z,68.60
2024-05-09T08:45:44.559Z,68.50
2024-05-09T08:48:14.705Z,68.14
2024-05-09T08:50:43.227Z,68.30
2024-05-09T08:53:12.461Z,67.47
2024-05-09T08:55:43.174Z,67.45
2024-05-09T08:58:16.439Z,67.56
2024-05-09T09:00:45.404Z,67.82
2024-05-09T09:03:19.215Z,67.14
2024-05-09T09:05:58.720Z,67.39
2024-05-09T09:08:26.456Z,67.03
2024-05-09T09:10:57.627Z,66.72
2024-05-09T09:13:26.299Z,67.19
2024-05-09T09:15:58.665Z,67.08
2024-05-09T09:18:26.873Z,66.80
2024-05-09T09:20:54.152Z,67.25
2024-05-09T09:23:20.980Z,66.95
2024-05-09T09:25:47.881Z,66.86
2024-05-09T09:28:14.947Z,66.85
2024-05-09T09:30:42.776Z,67.13
2024-05-09T09:33:10.558Z,67.02
2024-05-09T09:35:43.157Z,67.07
2024-05-09T09:38:11.163Z,67.01
2024-05-09T09:40:45.775Z,66.77
2024-05-09T09:43:19.750Z,66.74
2024-05-09T09:45:51.987Z,66.55
2024-05-09T09:48:20.386Z,66.35
2024-05-09T09:50:48.557Z,66.20
2024-05-09T09:53:16.900Z,66.18
2024-05-09T09:55:43.713Z,66.63
2024-05-09T09:58:13.960Z,66.71
2024-05-09T10:00:42.023Z,66.78
2024-05-09T10:03:09.195Z,66.87
2024-05-09T10:05:37.006Z,67.06
2024-05-09T10:08:06.605Z,67.07
2024-05-09T10:10:35.820Z,67.12
2024-05-09T10:13:09.181Z,67.58
2024-05-09T10:15:52.404Z,67.66
2024-05-09T10:18:28.279Z,67.76
2024-05-09T10:20:57.675Z,67.56
2024-05-09T10:23:29.513Z,67.27
2024-05-09T10:26:00.991Z,67.26
2024-05-09T10:28:29.179Z,67.24
2024-05-09T10:31:06.890Z,67.02
2024-05-09T10:33:48.965Z,66.97
2024-05-09T10:36:19.385Z,66.67
2024-05-09T10:38:46.240Z,66.45
2024-05-09T10:41:13.175Z,66.10
2024-05-09T10:43:41.402Z,66.25
2024-05-09T10:46:09.017Z,66.22
2024-05-09T10:48:40.307Z,65.91
2024-05-09T10:51:08.114Z,65.51
2024-05-09T10:54:01.229Z,65.26
2024-05-09T10:56:30.297Z,64.87
2024-05-09T10:58:57.014Z,64.74
2024-05-09T11:01:23.854Z,64.15
2024-05-09T11:03:51.274Z,64.49
2024-05-09T11:06:18.413Z,64.73
2024-05-09T11:08:46.967Z,64.60
2024-05-09T11:11:16.369Z,64.41
2024-05-09T11:13:43.267Z,64.35
2024-05-09T11:16:21.825Z,64.19
2024-05-09T11:19:00.196Z,64.02
2024-05-09T11:21:27.181Z,64.22
2024-05-09T11:23:54.340Z,63.91
2024-05-09T11:26:22.338Z,64.02
2024-05-09T11:28:50.884Z,63.88
2024-05-09T11:31:18.189Z,63.88
2024-05-09T11:33:48.137Z,63.59
2024-05-09T11:36:15.348Z,63.43
2024-05-09T11:38:42.660Z,63.39
2024-05-09T11:41:09.480Z,63.01
2024-05-09T11:43:38.443Z,62.90
2024-05-09T11:46:05.499Z,62.48
2024-05-09T11:48:32.825Z,62.32
2024-05-09T11:50:59.704Z,62.20
2024-05-09T11:53:26.447Z,61.82
2024-05-09T11:55:53.439Z,61.49
2024-05-09T11:58:21.522Z,61.23
2024-05-09T12:00:48.535Z,61.12
2024-05-09T12:03:17.727Z,60.71
2024-05-09T12:05:44.645Z,60.34
2024-05-09T12:08:12.138Z,59.93
2024-05-09T12:10:38.997Z,59.81
2024-05-09T12:13:07.078Z,59.38
2024-05-09T12:15:37.848Z,59.11
2024-05-09T12:18:06.732Z,58.53
2024-05-09T12:20:38.353Z,58.60
2024-05-09T12:23:08.635Z,58.27
2024-05-09T12:25:37.279Z,58.02
2024-05-09T12:28:04.613Z,57.60
2024-05-09T12:30:37.501Z,57.13
2024-05-09T12:33:13.999Z,56.89
2024-05-09T12:35:45.414Z,56.63
2024-05-09T12:38:15.284Z,56.13
2024-05-09T12:40:42.483Z,56.02
2024-05-09T12:43:10.642Z,55.11
2024-05-09T12:45:38.745Z,55.00
2024-05-09T12:48:12.463Z,54.29
2024-05-09T12:50:42.794Z,53.85
2024-05-09T12:53:09.659Z,53.50
2024-05-09T12:55:44.286Z,53.18
2024-05-09T12:58:20.097Z,53.26
2024-05-09T13:00:47.401Z,52.86
2024-05-09T13:03:15.104Z,52.56
2024-05-09T13:05:44.825Z,52.11
2024-05-09T13:08:12.749Z,52.25
2024-05-09T13:10:39.741Z,52.17
2024-05-09T13:13:06.834Z,51.81
2024-05-09T13:15:34.774Z,51.66
2024-05-09T13:18:03.387Z,51.55
2024-05-09T13:20:35.545Z,51.58
2024-05-09T13:23:05.430Z,51.54
2024-05-09T13:25:34.585Z,51.46
2024-05-09T13:28:01.861Z,50.75
2024-05-09T13:30:37.743Z,50.65
2024-05-09T13:33:08.283Z,50.51
2024-05-09T13:35:36.037Z,50.06
2024-05-09T13:38:04.656Z,50.15
2024-05-09T13:40:36.054Z,49.96
2024-05-09T13:43:05.029Z,49.98
2024-05-09T13:45:32.405Z,49.41
2024-05-09T13:48:04.032Z,49.55
2024-05-09T13:50:36.047Z,49.13
2024-05-09T13:53:06.577Z,49.17
2024-05-09T13:55:35.112Z,48.44
2024-05-09T13:58:07.189Z,48.17
2024-05-09T14:00:44.178Z,47.93
2024-05-09T14:03:16.493Z,47.90
2024-05-09T14:05:44.781Z,47.73
2024-05-09T14:08:12.022Z,47.39
2024-05-09T14:10:44.759Z,47.17
2024-05-09T14:13:13.005Z,46.76
2024-05-09T14:15:40.111Z,46.59
2024-05-09T14:18:11.455Z,46.42
2024-05-09T14:20:40.570Z,46.30
2024-05-09T14:23:07.350Z,45.52
2024-05-09T14:25:38.684Z,45.44
2024-05-09T14:28:08.759Z,45.04
2024-05-09T14:30:37.887Z,45.00
2024-05-09T14:33:07.698Z,45.10
2024-05-09T14:35:35.598Z,45.09
2024-05-09T14:38:03.018Z,44.82
2024-05-09T14:40:40.226Z,44.29
2024-05-09T14:43:11.821Z,44.35
2024-05-09T14:45:38.959Z,44.37
2024-05-09T14:48:07.063Z,44.48
2024-05-09T14:50:37.555Z,44.29
2024-05-09T14:53:07.780Z,44.19
2024-05-09T14:55:37.280Z,44.15
2024-05-09T14:58:09.106Z,43.91
2024-05-09T15:00:45.782Z,43.63
2024-05-09T15:03:16.456Z,43.12
2024-05-09T15:05:43.372Z,42.88
2024-05-09T15:08:10.209Z,42.56
2024-05-09T15:10:37.864Z,42.11
2024-05-09T15:13:07.960Z,41.91
2024-05-09T15:15:36.992Z,41.69
2024-05-09T15:18:05.050Z,41.42
2024-05-09T15:20:35.983Z,41.27
2024-05-09T15:23:05.715Z,41.46
2024-05-09T15:25:33.665Z,41.46
2024-05-09T15:28:00.756Z,41.30
2024-05-09T15:30:31.050Z,41.06
2024-05-09T15:33:01.001Z,40.59
2024-05-09T15:35:28.130Z,41.08
2024-05-09T15:37:55.517Z,40.54
2024-05-09T15:40:31.462Z,40.61
2024-05-09T15:43:05.991Z,40.46
2024-05-09T15:45:33.184Z,40.43
2024-05-09T15:48:00.449Z,40.49
2024-05-09T15:50:36.293Z,40.52
2024-05-09T15:53:07.469Z,40.98
2024-05-09T15:55:35.195Z,40.79
2024-05-09T15:58:03.439Z,40.79
2024-05-09T16:00:38.343Z,40.41
2024-05-09T16:03:09.869Z,40.22
2024-05-09T16:05:37.610Z,40.23
2024-05-09T16:08:05.821Z,40.27
2024-05-09T16:10:34.327Z,40.08
2024-05-09T16:13:02.830Z,40.10
2024-05-09T16:15:30.523Z,39.85
2024-05-09T16:17:57.563Z,39.89
2024-05-09T16:22:57.223Z,40.33
2024-05-09T16:25:23.973Z,40.40
2024-05-09T16:27:51.819Z,40.62
2024-05-09T16:30:27.741Z,40.76
2024-05-09T16:33:01.052Z,41.04
2024-05-09T16:35:27.927Z,40.99
2024-05-09T16:37:54.712Z,41.17
2024-05-09T16:40:30.108Z,41.26
2024-05-09T16:43:04.715Z,41.00
2024-05-09T16:45:32.071Z,40.91
2024-05-09T16:48:00.308Z,40.87
2024-05-09T16:50:32.419Z,40.90
2024-05-09T16:53:02.194Z,40.93
2024-05-09T16:55:31.480Z,40.90
2024-05-09T16:57:58.741Z,41.38
2024-05-09T17:00:35.863Z,41.43
2024-05-09T17:03:09.617Z,41.58
2024-05-09T17:05:37.130Z,41.89
2024-05-09T17:08:04.486Z,41.17
2024-05-09T17:10:35.272Z,40.74
2024-05-09T17:13:04.670Z,40.74
2024-05-09T17:15:33.312Z,41.07
2024-05-09T17:18:01.304Z,41.24
2024-05-09T17:20:33.245Z,41.29
2024-05-09T17:23:03.761Z,42.14
2024-05-09T17:25:30.730Z,41.98
2024-05-09T17:27:59.696Z,41.61
2024-05-09T17:30:32.470Z,41.68
2024-05-09T17:33:07.599Z,41.55
2024-05-09T17:35:36.184Z,41.44
2024-05-09T17:38:03.283Z,41.80
2024-05-09T17:40:33.911Z,41.78
2024-05-09T17:43:04.442Z,42.03
2024-05-09T17:45:32.301Z,42.66
2024-05-09T17:47:59.650Z,42.66
2024-05-09T17:50:33.868Z,42.79
2024-05-09T17:53:03.266Z,42.96
2024-05-09T17:55:30.220Z,42.89
2024-05-09T17:57:57.344Z,42.71
2024-05-09T18:00:33.543Z,42.74
2024-05-09T18:03:06.476Z,43.20
2024-05-09T18:05:36.500Z,44.03
2024-05-09T18:08:04.108Z,44.28
2024-05-09T18:10:37.936Z,44.97
2024-05-09T18:13:08.632Z,45.31
2024-05-09T18:15:36.014Z,45.38
2024-05-09T18:18:03.843Z,45.17
2024-05-09T18:20:40.413Z,45.47
2024-05-09T18:23:11.910Z,45.97
2024-05-09T18:25:41.127Z,46.19
2024-05-09T18:28:11.080Z,46.20
2024-05-09T18:30:41.770Z,46.94
2024-05-09T18:33:11.227Z,47.31
2024-05-09T18:35:38.617Z,47.67
2024-05-09T18:38:05.776Z,48.20
2024-05-09T18:40:36.182Z,48.60
2024-05-09T18:43:08.901Z,48.77
2024-05-09T18:45:38.141Z,49.05
2024-05-09T18:48:10.036Z,49.08
2024-05-09T18:50:40.143Z,49.19
2024-05-09T18:53:13.688Z,49.19
2024-05-09T18:55:44.425Z,49.32
2024-05-09T18:58:11.584Z,49.62
2024-05-09T19:00:43.808Z,49.78
2024-05-09T19:03:14.129Z,49.95
2024-05-09T19:05:45.887Z,50.20
2024-05-09T19:08:14.591Z,50.32
2024-05-09T19:10:41.713Z,50.53
2024-05-09T19:13:12.146Z,50.88
2024-05-09T19:15:41.264Z,51.11
2024-05-09T19:18:09.717Z,51.15
2024-05-09T19:20:37.453Z,51.33
2024-05-09T19:23:06.609Z,51.71
2024-05-09T19:25:34.639Z,51.79
2024-05-09T19:28:01.761Z,51.95
2024-05-09T19:30:37.241Z,51.62
2024-05-09T19:33:09.087Z,51.71
2024-05-09T19:35:36.402Z,51.79
2024-05-09T19:38:03.836Z,51.89
2024-05-09T19:40:32.927Z,52.21
2024-05-09T19:43:02.708Z,52.35
2024-05-09T19:45:33.377Z,52.50
2024-05-09T19:48:03.508Z,52.57
2024-05-09T19:50:39.314Z,52.73
2024-05-09T19:53:10.373Z,53.00
2024-05-09T19:55:39.927Z,53.18
2024-05-09T19:58:10.092Z,53.49
2024-05-09T20:00:40.317Z,53.37
2024-05-09T20:03:10.241Z,53.51
2024-05-09T20:05:38.560Z,53.49
2024-05-09T20:08:06.622Z,53.42
2024-05-09T20:10:36.880Z,53.46
2024-05-09T20:13:06.256Z,53.69
2024-05-09T20:15:35.720Z,53.60
2024-05-09T20:18:02.956Z,53.84
2024-05-09T20:20:37.357Z,53.81
2024-05-09T20:23:08.675Z,53.89
2024-05-09T20:25:38.022Z,53.81
2024-05-09T20:28:07.312Z,53.78
2024-05-09T20:30:35.419Z,54.07
2024-05-09T20:33:04.804Z,54.19
2024-05-09T20:35:33.288Z,54.10
2024-05-09T20:38:01.570Z,54.24
2024-05-09T20:40:33.458Z,54.41
2024-05-09T20:43:04.012Z,54.83
2024-05-09T20:45:30.958Z,55.20
2024-05-09T20:48:00.585Z,55.34
2024-05-09T20:50:36.629Z,55.48
2024-05-09T20:53:15.845Z,55.67
2024-05-09T20:55:45.929Z,55.81
2024-05-09T20:58:13.412Z,55.93
2024-05-09T21:00:45.025Z,56.07
2024-05-09T21:03:15.210Z,56.05
2024-05-09T21:05:44.811Z,56.20
2024-05-09T21:08:11.740Z,56.30
2024-05-09T21:10:38.869Z,56.33
2024-05-09T21:13:06.985Z,56.51
2024-05-09T21:15:34.341Z,56.40
2024-05-09T21:18:01.223Z,56.54
2024-05-09T21:20:31.748Z,56.61
2024-05-09T21:23:02.743Z,56.78
2024-05-09T21:25:30.010Z,56.71
2024-05-09T21:27:57.079Z,56.82
2024-05-09T21:30:32.654Z,56.95
2024-05-09T21:33:13.168Z,56.96
2024-05-09T21:35:42.218Z,57.01
2024-05-09T21:38:09.112Z,56.95
2024-05-09T21:40:37.374Z,57.09
2024-05-09T21:43:08.020Z,57.31
2024-05-09T21:45:36.135Z,57.18
2024-05-09T21:48:04.459Z,57.27
2024-05-09T21:50:38.684Z,57.39
2024-05-09T21:53:08.117Z,57.40
2024-05-09T21:55:34.990Z,57.52
2024-05-09T21:58:02.040Z,57.61
2024-05-09T22:00:35.803Z,57.40
2024-05-09T22:03:06.052Z,57.57
2024-05-09T22:05:33.152Z,57.70
2024-05-09T22:08:00.210Z,57.83
2024-05-09T22:10:33.363Z,57.78
2024-05-09T22:13:02.610Z,57.86
2024-05-09T22:15:29.497Z,57.82
2024-05-09T22:17:57.543Z,58.02
2024-05-09T22:20:34.114Z,57.98
2024-05-09T22:23:04.896Z,57.95
2024-05-09T22:25:34.552Z,58.23
2024-05-09T22:28:07.284Z,58.10
2024-05-09T22:30:37.984Z,58.28
2024-05-09T22:33:08.781Z,58.25
2024-05-09T22:35:36.895Z,58.36
2024-05-09T22:38:04.052Z,58.42
2024-05-09T22:40:41.661Z,58.42
2024-05-09T22:43:17.142Z,58.57
2024-05-09T22:45:44.481Z,58.38
2024-05-09T22:48:11.438Z,58.45
2024-05-09T22:50:38.311Z,58.54
2024-05-09T22:53:05.679Z,58.41
2024-05-09T22:55:32.507Z,58.57
2024-05-09T22:57:59.431Z,58.50
2024-05-09T23:00:31.427Z,58.75
2024-05-09T23:03:02.836Z,58.58
2024-05-09T23:05:32.320Z,58.63
2024-05-09T23:08:01.278Z,58.73
2024-05-09T23:10:35.435Z,58.80
2024-05-09T23:13:04.530Z,58.87
2024-05-09T23:15:31.653Z,58.80
2024-05-09T23:17:59.011Z,58.97
2024-05-09T23:20:36.283Z,58.97
2024-05-09T23:23:10.604Z,59.19
2024-05-09T23:25:38.601Z,58.95
2024-05-09T23:28:05.836Z,59.36
2024-05-09T23:30:37.853Z,59.23
2024-05-09T23:33:08.086Z,59.28
2024-05-09T23:35:38.254Z,59.36
2024-05-09T23:38:05.158Z,59.32
2024-05-09T23:43:04.086Z,59.46
2024-05-09T23:45:31.193Z,59.53
2024-05-09T23:47:58.058Z,59.52
2024-05-09T23:50:33.127Z,59.75
2024-05-09T23:53:03.162Z,59.47
2024-05-09T23:55:31.799Z,59.81
2024-05-09T23:57:59.047Z,59.68
